sensor_id;sensor_type;location;lat;lon;timestamp;pressure;altitude;pressure_sealevel;temperature;humidity
59600;BME280;61855;55.030;73.326;2022-07-23T00:01:28;98931.09;;;16.50;52.53
59600;BME280;61855;55.030;73.326;2022-07-23T00:03:55;98934.41;;;16.52;52.18
59600;BME280;61855;55.030;73.326;2022-07-23T00:06:23;98934.41;;;16.52;52.42
59600;BME280;61855;55.030;73.326;2022-07-23T00:08:49;98928.50;;;16.55;52.67
59600;BME280;61855;55.030;73.326;2022-07-23T00:11:15;98928.59;;;16.60;52.52
59600;BME280;61855;55.030;73.326;2022-07-23T00:13:44;98934.38;;;16.64;52.78
59600;BME280;61855;55.030;73.326;2022-07-23T00:16:10;98928.41;;;16.67;52.85
59600;BME280;61855;55.030;73.326;2022-07-23T00:18:36;98930.56;;;16.65;52.78
59600;BME280;61855;55.030;73.326;2022-07-23T00:21:02;98936.09;;;16.70;52.86
59600;BME280;61855;55.030;73.326;2022-07-23T00:23:28;98934.78;;;16.72;53.05
59600;BME280;61855;55.030;73.326;2022-07-23T00:25:55;98928.50;;;16.72;53.21
59600;BME280;61855;55.030;73.326;2022-07-23T00:28:26;98932.81;;;16.68;53.82
59600;BME280;61855;55.030;73.326;2022-07-23T00:30:53;98947.75;;;16.65;54.13
59600;BME280;61855;55.030;73.326;2022-07-23T00:33:21;98960.28;;;16.66;54.64
59600;BME280;61855;55.030;73.326;2022-07-23T00:35:47;98954.25;;;16.64;54.75
59600;BME280;61855;55.030;73.326;2022-07-23T00:38:13;98958.72;;;16.54;54.98
59600;BME280;61855;55.030;73.326;2022-07-23T00:40:40;98963.56;;;16.23;57.36
59600;BME280;61855;55.030;73.326;2022-07-23T00:43:06;98957.97;;;16.02;58.16
59600;BME280;61855;55.030;73.326;2022-07-23T00:45:33;98970.19;;;15.88;60.24
59600;BME280;61855;55.030;73.326;2022-07-23T00:47:59;98971.34;;;15.52;63.52
59600;BME280;61855;55.030;73.326;2022-07-23T00:50:31;98954.78;;;15.19;65.39
59600;BME280;61855;55.030;73.326;2022-07-23T00:52:58;98949.81;;;15.04;66.46
59600;BME280;61855;55.030;73.326;2022-07-23T00:55:24;98940.25;;;15.02;68.62
59600;BME280;61855;55.030;73.326;2022-07-23T00:57:52;98942.72;;;15.03;68.67
59600;BME280;61855;55.030;73.326;2022-07-23T01:00:18;98926.78;;;14.95;66.70
59600;BME280;61855;55.030;73.326;2022-07-23T01:02:45;98935.28;;;14.87;66.73
59600;BME280;61855;55.030;73.326;2022-07-23T01:05:16;98931.03;;;14.91;66.72
59600;BME280;61855;55.030;73.326;2022-07-23T01:07:47;98933.28;;;15.06;66.59
59600;BME280;61855;55.030;73.326;2022-07-23T01:10:17;98917.69;;;15.13;68.01
59600;BME280;61855;55.030;73.326;2022-07-23T01:13:08;98922.75;;;15.21;67.64
59600;BME280;61855;55.030;73.326;2022-07-23T01:15:38;98938.34;;;15.37;68.72
59600;BME280;61855;55.030;73.326;2022-07-23T01:18:06;98932.66;;;15.50;68.82
59600;BME280;61855;55.030;73.326;2022-07-23T01:20:34;98930.28;;;15.65;68.65
59600;BME280;61855;55.030;73.326;2022-07-23T01:23:01;98933.53;;;15.79;67.64
59600;BME280;61855;55.030;73.326;2022-07-23T01:25:28;98934.59;;;15.89;67.41
59600;BME280;61855;55.030;73.326;2022-07-23T01:28:03;98922.25;;;15.98;67.39
59600;BME280;61855;55.030;73.326;2022-07-23T01:30:29;98926.09;;;16.14;67.78
59600;BME280;61855;55.030;73.326;2022-07-23T01:32:57;98917.63;;;16.27;67.32
59600;BME280;61855;55.030;73.326;2022-07-23T01:35:23;98910.38;;;16.33;66.59
59600;BME280;61855;55.030;73.326;2022-07-23T01:37:57;98926.47;;;16.51;66.28
59600;BME280;61855;55.030;73.326;2022-07-23T01:40:23;98919.59;;;16.60;66.02
59600;BME280;61855;55.030;73.326;2022-07-23T01:43:00;98929.72;;;16.64;64.98
59600;BME280;61855;55.030;73.326;2022-07-23T01:45:29;98948.41;;;16.72;66.18
59600;BME280;61855;55.030;73.326;2022-07-23T01:47:55;98943.03;;;16.77;65.51
59600;BME280;61855;55.030;73.326;2022-07-23T01:50:24;98948.50;;;16.77;65.59
59600;BME280;61855;55.030;73.326;2022-07-23T01:53:07;98948.50;;;16.77;64.72
59600;BME280;61855;55.030;73.326;2022-07-23T01:55:35;98945.50;;;16.79;64.16
59600;BME280;61855;55.030;73.326;2022-07-23T01:58:02;98943.34;;;16.81;63.55
59600;BME280;61855;55.030;73.326;2022-07-23T02:00:35;98939.31;;;16.83;62.90
59600;BME280;61855;55.030;73.326;2022-07-23T02:03:01;98940.72;;;16.86;62.79
59600;BME280;61855;55.030;73.326;2022-07-23T02:05:28;98926.53;;;16.84;61.63
59600;BME280;61855;55.030;73.326;2022-07-23T02:07:54;98943.88;;;16.95;61.25
59600;BME280;61855;55.030;73.326;2022-07-23T02:10:21;98940.41;;;16.99;60.93
59600;BME280;61855;55.030;73.326;2022-07-23T02:12:47;98929.59;;;17.04;60.36
59600;BME280;61855;55.030;73.326;2022-07-23T02:15:15;98942.03;;;17.17;60.22
59600;BME280;61855;55.030;73.326;2022-07-23T02:17:41;98934.75;;;17.22;59.99
59600;BME280;61855;55.030;73.326;2022-07-23T02:20:08;98942.63;;;17.40;59.66
59600;BME280;61855;55.030;73.326;2022-07-23T02:22:35;98932.38;;;17.47;59.78
59600;BME280;61855;55.030;73.326;2022-07-23T02:25:03;98935.84;;;17.59;58.59
59600;BME280;61855;55.030;73.326;2022-07-23T02:27:30;98940.88;;;17.68;58.79
59600;BME280;61855;55.030;73.326;2022-07-23T02:29:56;98929.56;;;17.81;58.47
59600;BME280;61855;55.030;73.326;2022-07-23T02:32:24;98926.66;;;17.87;58.43
59600;BME280;61855;55.030;73.326;2022-07-23T02:34:50;98941.56;;;18.01;58.81
59600;BME280;61855;55.030;73.326;2022-07-23T02:37:17;98935.91;;;18.08;58.27
59600;BME280;61855;55.030;73.326;2022-07-23T02:39:44;98944.72;;;18.15;56.66
59600;BME280;61855;55.030;73.326;2022-07-23T02:42:11;98941.53;;;18.23;56.69
59600;BME280;61855;55.030;73.326;2022-07-23T02:44:37;98945.19;;;18.34;56.25
59600;BME280;61855;55.030;73.326;2022-07-23T02:47:04;98937.69;;;18.46;56.04
59600;BME280;61855;55.030;73.326;2022-07-23T02:49:33;98935.91;;;18.56;55.95
59600;BME280;61855;55.030;73.326;2022-07-23T02:52:02;98930.22;;;18.63;56.37
59600;BME280;61855;55.030;73.326;2022-07-23T02:54:32;98936.91;;;18.77;55.91
59600;BME280;61855;55.030;73.326;2022-07-23T02:56:58;98936.66;;;18.83;55.17
59600;BME280;61855;55.030;73.326;2022-07-23T02:59:26;98938.31;;;18.84;54.60
59600;BME280;61855;55.030;73.326;2022-07-23T03:01:59;98930.91;;;18.80;54.96
59600;BME280;61855;55.030;73.326;2022-07-23T03:04:27;98935.09;;;18.92;54.41
59600;BME280;61855;55.030;73.326;2022-07-23T03:06:53;98940.66;;;19.03;54.33
59600;BME280;61855;55.030;73.326;2022-07-23T03:09:19;98943.72;;;19.11;54.25
59600;BME280;61855;55.030;73.326;2022-07-23T03:11:45;98944.84;;;19.15;53.81
59600;BME280;61855;55.030;73.326;2022-07-23T03:14:12;98939.16;;;19.22;53.77
59600;BME280;61855;55.030;73.326;2022-07-23T03:16:39;98942.78;;;19.32;53.77
59600;BME280;61855;55.030;73.326;2022-07-23T03:19:05;98947.72;;;19.35;54.26
59600;BME280;61855;55.030;73.326;2022-07-23T03:21:31;98943.03;;;19.31;54.64
59600;BME280;61855;55.030;73.326;2022-07-23T03:24:03;98946.28;;;19.23;54.35
59600;BME280;61855;55.030;73.326;2022-07-23T03:26:29;98936.94;;;19.19;54.47
59600;BME280;61855;55.030;73.326;2022-07-23T03:28:55;98936.94;;;19.19;54.10
59600;BME280;61855;55.030;73.326;2022-07-23T03:31:21;98938.13;;;19.33;54.23
59600;BME280;61855;55.030;73.326;2022-07-23T03:33:49;98936.91;;;19.50;53.96
59600;BME280;61855;55.030;73.326;2022-07-23T03:36:21;98935.88;;;19.67;53.87
59600;BME280;61855;55.030;73.326;2022-07-23T03:38:53;98946.91;;;19.82;53.70
59600;BME280;61855;55.030;73.326;2022-07-23T03:41:28;98946.69;;;19.93;53.42
59600;BME280;61855;55.030;73.326;2022-07-23T03:43:54;98941.00;;;20.15;52.89
59600;BME280;61855;55.030;73.326;2022-07-23T03:46:20;98939.97;;;20.31;52.78
59600;BME280;61855;55.030;73.326;2022-07-23T03:48:46;98938.09;;;20.47;51.93
59600;BME280;61855;55.030;73.326;2022-07-23T03:51:18;98939.72;;;20.43;52.49
59600;BME280;61855;55.030;73.326;2022-07-23T03:53:44;98934.25;;;20.38;52.99
59600;BME280;61855;55.030;73.326;2022-07-23T03:56:10;98937.81;;;20.43;52.65
59600;BME280;61855;55.030;73.326;2022-07-23T03:58:39;98930.44;;;20.49;52.24
59600;BME280;61855;55.030;73.326;2022-07-23T04:01:05;98942.50;;;20.58;51.75
59600;BME280;61855;55.030;73.326;2022-07-23T04:03:33;98941.97;;;20.56;51.40
59600;BME280;61855;55.030;73.326;2022-07-23T04:06:03;98935.13;;;20.58;51.54
59600;BME280;61855;55.030;73.326;2022-07-23T04:08:34;98940.59;;;20.58;51.73
59600;BME280;61855;55.030;73.326;2022-07-23T04:11:03;98934.28;;;20.58;52.33
59600;BME280;61855;55.030;73.326;2022-07-23T04:13:36;98939.22;;;20.71;52.34
59600;BME280;61855;55.030;73.326;2022-07-23T04:16:03;98934.28;;;20.93;51.85
59600;BME280;61855;55.030;73.326;2022-07-23T04:18:30;98934.59;;;21.17;51.39
59600;BME280;61855;55.030;73.326;2022-07-23T04:21:04;98928.25;;;21.26;51.01
59600;BME280;61855;55.030;73.326;2022-07-23T04:23:36;98931.00;;;21.31;51.16
59600;BME280;61855;55.030;73.326;2022-07-23T04:26:03;98923.84;;;21.45;50.76
59600;BME280;61855;55.030;73.326;2022-07-23T04:28:30;98924.06;;;21.54;50.51
59600;BME280;61855;55.030;73.326;2022-07-23T04:30:57;98923.22;;;21.58;50.43
59600;BME280;61855;55.030;73.326;2022-07-23T04:33:24;98922.94;;;21.70;49.63
59600;BME280;61855;55.030;73.326;2022-07-23T04:36:03;98908.69;;;21.63;49.89
59600;BME280;61855;55.030;73.326;2022-07-23T04:38:29;98923.53;;;21.57;50.01
59600;BME280;61855;55.030;73.326;2022-07-23T04:41:00;98913.38;;;21.52;50.05
59600;BME280;61855;55.030;73.326;2022-07-23T04:43:28;98911.47;;;21.48;50.22
59600;BME280;61855;55.030;73.326;2022-07-23T04:45:54;98912.88;;;21.35;50.87
59600;BME280;61855;55.030;73.326;2022-07-23T04:48:20;98909.34;;;21.25;51.29
59600;BME280;61855;55.030;73.326;2022-07-23T04:50:51;98908.22;;;21.31;50.65
59600;BME280;61855;55.030;73.326;2022-07-23T04:53:22;98901.63;;;21.37;50.77
59600;BME280;61855;55.030;73.326;2022-07-23T04:55:50;98902.44;;;21.37;50.67
59600;BME280;61855;55.030;73.326;2022-07-23T04:58:16;98908.47;;;21.44;50.36
59600;BME280;61855;55.030;73.326;2022-07-23T05:00:42;98898.84;;;21.42;50.48
59600;BME280;61855;55.030;73.326;2022-07-23T05:03:10;98895.34;;;21.31;50.86
59600;BME280;61855;55.030;73.326;2022-07-23T05:05:36;98904.97;;;21.14;51.45
59600;BME280;61855;55.030;73.326;2022-07-23T05:08:11;98904.97;;;21.04;51.82
59600;BME280;61855;55.030;73.326;2022-07-23T05:10:39;98894.25;;;21.02;51.78
59600;BME280;61855;55.030;73.326;2022-07-23T05:13:05;98901.66;;;21.12;51.48
59600;BME280;61855;55.030;73.326;2022-07-23T05:15:31;98903.59;;;21.06;50.77
59600;BME280;61855;55.030;73.326;2022-07-23T05:17:57;98894.28;;;21.07;51.52
59600;BME280;61855;55.030;73.326;2022-07-23T05:20:23;98891.25;;;21.14;51.61
59600;BME280;61855;55.030;73.326;2022-07-23T05:22:56;98899.44;;;21.29;51.18
59600;BME280;61855;55.030;73.326;2022-07-23T05:25:23;98897.25;;;21.36;50.55
59600;BME280;61855;55.030;73.326;2022-07-23T05:27:58;98903.53;;;21.41;50.42
59600;BME280;61855;55.030;73.326;2022-07-23T05:30:24;98899.94;;;21.51;50.19
59600;BME280;61855;55.030;73.326;2022-07-23T05:32:56;98903.75;;;21.65;49.84
59600;BME280;61855;55.030;73.326;2022-07-23T05:35:26;98905.63;;;21.80;49.29
59600;BME280;61855;55.030;73.326;2022-07-23T05:38:16;98902.59;;;21.76;49.25
59600;BME280;61855;55.030;73.326;2022-07-23T05:40:43;98900.69;;;21.72;49.45
59600;BME280;61855;55.030;73.326;2022-07-23T05:43:09;98897.97;;;21.62;49.84
59600;BME280;61855;55.030;73.326;2022-07-23T05:45:45;98898.50;;;21.64;49.76
59600;BME280;61855;55.030;73.326;2022-07-23T05:48:11;98894.34;;;21.76;48.93
59600;BME280;61855;55.030;73.326;2022-07-23T05:50:47;98889.63;;;21.97;48.59
59600;BME280;61855;55.030;73.326;2022-07-23T05:53:26;98889.22;;;22.18;48.48
59600;BME280;61855;55.030;73.326;2022-07-23T05:56:02;98890.25;;;22.27;48.67
59600;BME280;61855;55.030;73.326;2022-07-23T05:58:30;98894.59;;;22.39;47.90
59600;BME280;61855;55.030;73.326;2022-07-23T06:00:56;98888.78;;;22.45;48.20
59600;BME280;61855;55.030;73.326;2022-07-23T06:03:28;98890.81;;;22.68;47.26
59600;BME280;61855;55.030;73.326;2022-07-23T06:05:54;98886.63;;;23.10;46.55
59600;BME280;61855;55.030;73.326;2022-07-23T06:08:30;98882.59;;;23.26;45.47
59600;BME280;61855;55.030;73.326;2022-07-23T06:10:56;98893.91;;;23.24;45.05
59600;BME280;61855;55.030;73.326;2022-07-23T06:13:23;98891.53;;;23.13;44.64
59600;BME280;61855;55.030;73.326;2022-07-23T06:15:49;98884.81;;;23.24;44.70
59600;BME280;61855;55.030;73.326;2022-07-23T06:18:16;98885.44;;;23.16;44.61
59600;BME280;61855;55.030;73.326;2022-07-23T06:20:42;98885.31;;;23.02;45.29
59600;BME280;61855;55.030;73.326;2022-07-23T06:23:08;98884.44;;;23.07;44.34
59600;BME280;61855;55.030;73.326;2022-07-23T06:25:34;98890.81;;;23.02;44.88
59600;BME280;61855;55.030;73.326;2022-07-23T06:28:00;98873.28;;;23.22;44.70
59600;BME280;61855;55.030;73.326;2022-07-23T06:30:27;98873.38;;;23.40;44.65
59600;BME280;61855;55.030;73.326;2022-07-23T06:32:55;98871.56;;;23.54;44.53
59600;BME280;61855;55.030;73.326;2022-07-23T06:35:21;98868.97;;;23.63;45.04
59600;BME280;61855;55.030;73.326;2022-07-23T06:37:47;98865.53;;;23.52;44.93
59600;BME280;61855;55.030;73.326;2022-07-23T06:40:14;98866.63;;;23.51;44.61
59600;BME280;61855;55.030;73.326;2022-07-23T06:42:40;98863.00;;;23.56;44.56
59600;BME280;61855;55.030;73.326;2022-07-23T06:45:07;98867.00;;;23.69;43.47
59600;BME280;61855;55.030;73.326;2022-07-23T06:47:35;98842.06;;;23.79;42.76
59600;BME280;61855;55.030;73.326;2022-07-23T06:50:01;98841.03;;;23.75;43.58
59600;BME280;61855;55.030;73.326;2022-07-23T06:52:27;98844.81;;;23.60;43.84
59600;BME280;61855;55.030;73.326;2022-07-23T06:54:53;98840.66;;;23.39;42.79
59600;BME280;61855;55.030;73.326;2022-07-23T06:57:20;98837.28;;;23.42;43.69
59600;BME280;61855;55.030;73.326;2022-07-23T06:59:46;98836.13;;;23.48;41.94
59600;BME280;61855;55.030;73.326;2022-07-23T07:02:12;98841.59;;;23.53;41.20
59600;BME280;61855;55.030;73.326;2022-07-23T07:04:38;98835.41;;;23.61;41.32
59600;BME280;61855;55.030;73.326;2022-07-23T07:07:04;98821.50;;;23.71;40.49
59600;BME280;61855;55.030;73.326;2022-07-23T07:09:30;98844.47;;;23.85;40.72
59600;BME280;61855;55.030;73.326;2022-07-23T07:11:56;98826.97;;;23.95;39.91
59600;BME280;61855;55.030;73.326;2022-07-23T07:14:22;98815.28;;;23.84;40.04
59600;BME280;61855;55.030;73.326;2022-07-23T07:16:48;98819.81;;;23.94;40.25
59600;BME280;61855;55.030;73.326;2022-07-23T07:19:14;98829.59;;;24.05;39.97
59600;BME280;61855;55.030;73.326;2022-07-23T07:21:40;98827.03;;;23.90;40.93
59600;BME280;61855;55.030;73.326;2022-07-23T07:24:07;98822.16;;;24.05;41.01
59600;BME280;61855;55.030;73.326;2022-07-23T07:26:34;98821.66;;;24.22;40.66
59600;BME280;61855;55.030;73.326;2022-07-23T07:29:10;98813.00;;;24.29;40.72
59600;BME280;61855;55.030;73.326;2022-07-23T07:31:36;98805.81;;;24.46;40.91
59600;BME280;61855;55.030;73.326;2022-07-23T07:34:03;98807.06;;;24.54;40.48
59600;BME280;61855;55.030;73.326;2022-07-23T07:36:29;98809.31;;;24.52;40.59
59600;BME280;61855;55.030;73.326;2022-07-23T07:38:55;98811.00;;;24.66;40.73
59600;BME280;61855;55.030;73.326;2022-07-23T07:41:21;98804.72;;;24.61;40.94
59600;BME280;61855;55.030;73.326;2022-07-23T07:43:52;98798.09;;;24.62;40.39
59600;BME280;61855;55.030;73.326;2022-07-23T07:46:22;98790.66;;;24.62;40.65
59600;BME280;61855;55.030;73.326;2022-07-23T07:48:55;98783.50;;;24.61;40.58
59600;BME280;61855;55.030;73.326;2022-07-23T07:51:31;98788.53;;;24.03;41.84
59600;BME280;61855;55.030;73.326;2022-07-23T07:53:58;98792.56;;;23.74;42.36
59600;BME280;61855;55.030;73.326;2022-07-23T07:56:25;98788.59;;;23.80;42.77
59600;BME280;61855;55.030;73.326;2022-07-23T07:58:51;98786.75;;;23.75;43.50
59600;BME280;61855;55.030;73.326;2022-07-23T08:01:17;98794.06;;;23.85;43.21
59600;BME280;61855;55.030;73.326;2022-07-23T08:03:45;98791.41;;;23.98;43.15
59600;BME280;61855;55.030;73.326;2022-07-23T08:06:11;98784.69;;;24.04;43.37
59600;BME280;61855;55.030;73.326;2022-07-23T08:08:37;98774.47;;;24.23;42.94
59600;BME280;61855;55.030;73.326;2022-07-23T08:11:03;98780.69;;;24.48;42.14
59600;BME280;61855;55.030;73.326;2022-07-23T08:13:29;98775.63;;;24.55;42.12
59600;BME280;61855;55.030;73.326;2022-07-23T08:15:55;98776.38;;;24.74;41.75
59600;BME280;61855;55.030;73.326;2022-07-23T08:18:22;98768.84;;;24.79;41.76
59600;BME280;61855;55.030;73.326;2022-07-23T08:20:48;98760.13;;;24.72;41.40
59600;BME280;61855;55.030;73.326;2022-07-23T08:23:14;98779.13;;;24.60;42.05
59600;BME280;61855;55.030;73.326;2022-07-23T08:25:44;98772.28;;;24.39;42.28
59600;BME280;61855;55.030;73.326;2022-07-23T08:28:12;98766.22;;;24.23;42.29
59600;BME280;61855;55.030;73.326;2022-07-23T08:30:41;98762.91;;;24.08;41.73
59600;BME280;61855;55.030;73.326;2022-07-23T08:33:15;98763.91;;;23.93;41.20
59600;BME280;61855;55.030;73.326;2022-07-23T08:35:47;98762.63;;;24.04;41.58
59600;BME280;61855;55.030;73.326;2022-07-23T08:38:25;98763.28;;;23.96;41.65
59600;BME280;61855;55.030;73.326;2022-07-23T08:40:55;98766.75;;;23.88;41.75
59600;BME280;61855;55.030;73.326;2022-07-23T08:43:25;98774.56;;;23.81;41.93
59600;BME280;61855;55.030;73.326;2022-07-23T08:45:53;98763.38;;;23.73;41.82
59600;BME280;61855;55.030;73.326;2022-07-23T08:48:27;98763.38;;;23.73;41.76
59600;BME280;61855;55.030;73.326;2022-07-23T08:50:56;98756.91;;;24.01;41.36
59600;BME280;61855;55.030;73.326;2022-07-23T08:53:24;98760.38;;;24.25;40.83
59600;BME280;61855;55.030;73.326;2022-07-23T08:55:57;98750.53;;;24.38;40.04
59600;BME280;61855;55.030;73.326;2022-07-23T08:58:25;98734.88;;;24.65;39.87
59600;BME280;61855;55.030;73.326;2022-07-23T09:00:51;98734.63;;;24.94;38.68
59600;BME280;61855;55.030;73.326;2022-07-23T09:03:21;98740.16;;;25.21;38.44
59600;BME280;61855;55.030;73.326;2022-07-23T09:05:49;98729.81;;;25.54;38.21
59600;BME280;61855;55.030;73.326;2022-07-23T09:08:18;98729.66;;;25.86;37.63
59600;BME280;61855;55.030;73.326;2022-07-23T09:10:56;98720.97;;;26.01;36.69
59600;BME280;61855;55.030;73.326;2022-07-23T09:13:36;98724.34;;;25.76;36.95
59600;BME280;61855;55.030;73.326;2022-07-23T09:18:46;98739.53;;;24.97;37.60
59600;BME280;61855;55.030;73.326;2022-07-23T09:26:45;98778.13;;;22.63;44.27
59600;BME280;61855;55.030;73.326;2022-07-23T09:29:20;98782.09;;;22.13;45.31
59600;BME280;61855;55.030;73.326;2022-07-23T09:34:21;98790.53;;;21.29;55.09
59600;BME280;61855;55.030;73.326;2022-07-23T09:36:50;98784.03;;;20.85;55.24
59600;BME280;61855;55.030;73.326;2022-07-23T09:39:28;98788.19;;;20.67;56.12
59600;BME280;61855;55.030;73.326;2022-07-23T09:41:54;98779.66;;;20.89;51.98
59600;BME280;61855;55.030;73.326;2022-07-23T09:44:21;98780.72;;;21.03;52.99
59600;BME280;61855;55.030;73.326;2022-07-23T09:46:49;98764.53;;;21.07;54.55
59600;BME280;61855;55.030;73.326;2022-07-23T09:49:21;98761.53;;;21.13;51.77
59600;BME280;61855;55.030;73.326;2022-07-23T09:51:48;98750.75;;;21.32;50.95
59600;BME280;61855;55.030;73.326;2022-07-23T09:54:24;98753.03;;;21.64;49.04
59600;BME280;61855;55.030;73.326;2022-07-23T09:56:55;98743.50;;;21.95;46.41
59600;BME280;61855;55.030;73.326;2022-07-23T09:59:29;98739.75;;;22.19;46.43
59600;BME280;61855;55.030;73.326;2022-07-23T10:01:58;98738.50;;;22.36;46.83
59600;BME280;61855;55.030;73.326;2022-07-23T10:04:27;98747.69;;;22.55;45.79
59600;BME280;61855;55.030;73.326;2022-07-23T10:07:33;98756.97;;;22.64;45.50
59600;BME280;61855;55.030;73.326;2022-07-23T10:10:20;98756.75;;;22.84;44.01
59600;BME280;61855;55.030;73.326;2022-07-23T10:12:56;98761.16;;;23.09;43.88
59600;BME280;61855;55.030;73.326;2022-07-23T10:15:41;98745.88;;;23.21;43.36
59600;BME280;61855;55.030;73.326;2022-07-23T10:18:10;98733.88;;;23.36;43.47
59600;BME280;61855;55.030;73.326;2022-07-23T10:20:36;98747.97;;;23.53;42.02
59600;BME280;61855;55.030;73.326;2022-07-23T10:23:28;98751.44;;;23.58;41.44
59600;BME280;61855;55.030;73.326;2022-07-23T10:26:10;98745.38;;;23.80;40.91
59600;BME280;61855;55.030;73.326;2022-07-23T10:31:38;98749.63;;;24.10;39.77
59600;BME280;61855;55.030;73.326;2022-07-23T10:34:31;98750.41;;;24.29;39.70
59600;BME280;61855;55.030;73.326;2022-07-23T10:37:16;98741.63;;;24.73;38.25
59600;BME280;61855;55.030;73.326;2022-07-23T10:40:10;98743.72;;;24.49;37.94
59600;BME280;61855;55.030;73.326;2022-07-23T10:42:37;98729.50;;;24.42;37.79
59600;BME280;61855;55.030;73.326;2022-07-23T10:45:26;98743.09;;;24.38;37.39
59600;BME280;61855;55.030;73.326;2022-07-23T10:47:54;98752.81;;;25.63;34.93
59600;BME280;61855;55.030;73.326;2022-07-23T10:50:30;98754.47;;;26.00;33.82
59600;BME280;61855;55.030;73.326;2022-07-23T10:53:14;98743.53;;;26.83;32.18
59600;BME280;61855;55.030;73.326;2022-07-23T10:55:44;98746.13;;;28.44;31.06
59600;BME280;61855;55.030;73.326;2022-07-23T10:58:47;98743.09;;;26.99;32.48
59600;BME280;61855;55.030;73.326;2022-07-23T11:01:33;98749.81;;;25.73;34.33
59600;BME280;61855;55.030;73.326;2022-07-23T11:04:00;98752.22;;;25.25;35.41
59600;BME280;61855;55.030;73.326;2022-07-23T11:20:22;98807.38;;;21.62;43.96
59600;BME280;61855;55.030;73.326;2022-07-23T11:22:51;98816.69;;;20.71;47.23
59600;BME280;61855;55.030;73.326;2022-07-23T11:27:50;98804.34;;;20.64;46.90
59600;BME280;61855;55.030;73.326;2022-07-23T11:35:35;98774.03;;;21.39;43.37
59600;BME280;61855;55.030;73.326;2022-07-23T11:38:08;98791.47;;;23.04;38.60
59600;BME280;61855;55.030;73.326;2022-07-23T11:40:39;98779.69;;;23.88;36.55
59600;BME280;61855;55.030;73.326;2022-07-23T11:43:11;98776.47;;;24.37;35.24
59600;BME280;61855;55.030;73.326;2022-07-23T11:45:41;98771.97;;;25.60;32.87
59600;BME280;61855;55.030;73.326;2022-07-23T11:48:15;98765.09;;;26.95;30.69
59600;BME280;61855;55.030;73.326;2022-07-23T11:50:41;98781.13;;;27.55;29.53
59600;BME280;61855;55.030;73.326;2022-07-23T11:53:08;98764.38;;;27.60;29.14
59600;BME280;61855;55.030;73.326;2022-07-23T11:55:34;98756.72;;;27.74;29.04
59600;BME280;61855;55.030;73.326;2022-07-23T11:58:00;98757.59;;;28.08;28.99
59600;BME280;61855;55.030;73.326;2022-07-23T12:00:29;98768.59;;;28.94;27.79
59600;BME280;61855;55.030;73.326;2022-07-23T12:02:58;98750.34;;;29.22;27.41
59600;BME280;61855;55.030;73.326;2022-07-23T12:05:27;98753.00;;;29.77;26.54
59600;BME280;61855;55.030;73.326;2022-07-23T12:07:55;98767.00;;;30.31;25.87
59600;BME280;61855;55.030;73.326;2022-07-23T12:10:23;98754.28;;;30.74;25.20
59600;BME280;61855;55.030;73.326;2022-07-23T12:12:55;98758.84;;;31.48;24.45
59600;BME280;61855;55.030;73.326;2022-07-23T12:15:28;98746.50;;;31.85;23.63
59600;BME280;61855;55.030;73.326;2022-07-23T12:17:56;98757.28;;;32.11;23.70
59600;BME280;61855;55.030;73.326;2022-07-23T12:20:26;98751.50;;;32.04;22.71
59600;BME280;61855;55.030;73.326;2022-07-23T12:22:56;98746.38;;;31.94;22.42
59600;BME280;61855;55.030;73.326;2022-07-23T12:25:28;98755.13;;;31.80;21.96
59600;BME280;61855;55.030;73.326;2022-07-23T12:28:04;98765.84;;;31.54;22.30
59600;BME280;61855;55.030;73.326;2022-07-23T12:30:34;98751.88;;;31.42;23.13
59600;BME280;61855;55.030;73.326;2022-07-23T12:33:03;98756.50;;;31.74;23.10
59600;BME280;61855;55.030;73.326;2022-07-23T12:35:32;98755.78;;;32.01;23.05
59600;BME280;61855;55.030;73.326;2022-07-23T12:38:04;98760.56;;;32.29;22.35
59600;BME280;61855;55.030;73.326;2022-07-23T12:40:42;98778.19;;;31.93;22.91
59600;BME280;61855;55.030;73.326;2022-07-23T12:43:20;98756.41;;;31.59;23.69
59600;BME280;61855;55.030;73.326;2022-07-23T12:45:51;98762.75;;;30.99;24.38
59600;BME280;61855;55.030;73.326;2022-07-23T12:51:01;98753.84;;;31.29;24.42
59600;BME280;61855;55.030;73.326;2022-07-23T12:56:08;98772.13;;;28.14;28.31
59600;BME280;61855;55.030;73.326;2022-07-23T13:01:09;98771.75;;;27.98;28.87
59600;BME280;61855;55.030;73.326;2022-07-23T13:03:38;98772.53;;;27.25;29.98
59600;BME280;61855;55.030;73.326;2022-07-23T13:06:08;98769.25;;;26.17;31.60
59600;BME280;61855;55.030;73.326;2022-07-23T13:08:35;98780.81;;;25.84;31.97
59600;BME280;61855;55.030;73.326;2022-07-23T13:11:03;98786.72;;;26.71;31.07
59600;BME280;61855;55.030;73.326;2022-07-23T13:13:32;98785.97;;;28.40;28.87
59600;BME280;61855;55.030;73.326;2022-07-23T13:16:08;98776.47;;;27.89;29.49
59600;BME280;61855;55.030;73.326;2022-07-23T13:18:34;98772.75;;;28.71;28.73
59600;BME280;61855;55.030;73.326;2022-07-23T13:21:00;98788.19;;;29.44;27.56
59600;BME280;61855;55.030;73.326;2022-07-23T13:23:27;98774.19;;;27.35;30.17
59600;BME280;61855;55.030;73.326;2022-07-23T13:25:53;98772.69;;;27.60;30.36
59600;BME280;61855;55.030;73.326;2022-07-23T13:28:24;98771.50;;;26.29;31.84
59600;BME280;61855;55.030;73.326;2022-07-23T13:30:51;98784.00;;;25.23;33.33
59600;BME280;61855;55.030;73.326;2022-07-23T13:33:19;98784.63;;;24.60;34.56
59600;BME280;61855;55.030;73.326;2022-07-23T13:35:46;98801.09;;;24.14;35.13
59600;BME280;61855;55.030;73.326;2022-07-23T13:38:14;98777.19;;;23.91;35.56
59600;BME280;61855;55.030;73.326;2022-07-23T13:40:43;98782.97;;;23.71;35.71
59600;BME280;61855;55.030;73.326;2022-07-23T13:43:12;98787.69;;;23.47;36.18
59600;BME280;61855;55.030;73.326;2022-07-23T13:45:38;98782.47;;;23.22;36.41